createdAt,value
2023-01-12T00:03:27.388Z,7.75
2023-01-12T00:07:34.051Z,5.18
2023-01-12T00:11:41.040Z,6.60
2023-01-12T00:16:06.613Z,7.07
2023-01-12T00:20:13.279Z,7.82
2023-01-12T00:24:20.626Z,5.88
2023-01-12T00:28:27.425Z,8.70
2023-01-12T00:32:34.132Z,7.38
2023-01-12T00:36:40.811Z,9.65
2023-01-12T00:40:47.541Z,4.70
2023-01-12T00:45:12.795Z,5.95
2023-01-12T00:49:19.554Z,4.50
2023-01-12T00:53:26.279Z,11.10
2023-01-12T00:57:33.354Z,13.88
2023-01-12T01:01:40.174Z,10.40
2023-01-12T01:05:46.952Z,5.25
2023-01-12T01:09:53.638Z,3.40
2023-01-12T01:14:00.729Z,7.25
2023-01-12T01:18:07.428Z,10.40
2023-01-12T01:22:14.546Z,8.80
2023-01-12T01:26:23.713Z,13.25
2023-01-12T01:30:30.347Z,14.32
2023-01-12T01:34:37.189Z,11.57
2023-01-12T01:38:45.364Z,16.08
2023-01-12T01:42:53.402Z,11.32
2023-01-12T01:47:00.072Z,11.35
2023-01-12T01:51:12.075Z,13.65
2023-01-12T01:55:49.945Z,12.95
2023-01-12T01:59:58.243Z,9.25
2023-01-12T02:04:06.549Z,15.90
2023-01-12T02:08:41.216Z,9.18
2023-01-12T02:13:07.331Z,8.60
2023-01-12T02:17:29.922Z,8.95
2023-01-12T02:21:51.402Z,13.50
2023-01-12T02:26:36.813Z,10.00
2023-01-12T02:31:07.548Z,4.93
2023-01-12T02:35:55.274Z,4.78
2023-01-12T02:40:23.547Z,7.25
2023-01-12T02:44:37.231Z,8.55
2023-01-12T02:48:55.572Z,5.38
2023-01-12T02:53:08.256Z,9.07
2023-01-12T02:57:16.339Z,5.07
2023-01-12T03:01:25.523Z,4.70
2023-01-12T03:05:32.568Z,4.88
2023-01-12T03:09:44.726Z,8.18
2023-01-12T03:13:57.644Z,4.15
2023-01-12T03:18:13.462Z,3.08
2023-01-12T03:22:21.525Z,4.93
2023-01-12T03:26:30.433Z,3.67
2023-01-12T03:30:40.263Z,6.53
2023-01-12T03:34:47.100Z,7.40
2023-01-12T03:39:14.449Z,8.23
2023-01-12T03:43:28.773Z,2.70
2023-01-12T03:47:36.920Z,3.65
2023-01-12T03:51:47.343Z,9.43
2023-01-12T03:55:57.556Z,4.55
2023-01-12T04:00:07.462Z,8.30
2023-01-12T04:04:14.385Z,9.35
2023-01-12T04:08:21.360Z,1.40
2023-01-12T04:12:28.136Z,4.93
2023-01-12T04:16:34.807Z,10.07
2023-01-12T04:20:41.631Z,9.48
2023-01-12T04:24:48.668Z,2.67
2023-01-12T04:28:55.335Z,4.80
2023-01-12T04:33:08.174Z,9.68
2023-01-12T04:37:15.212Z,2.75
2023-01-12T04:41:22.004Z,9.68
2023-01-12T04:45:31.343Z,3.10
2023-01-12T04:49:38.016Z,5.63
2023-01-12T04:53:44.796Z,15.80
2023-01-12T04:57:51.601Z,1.75
2023-01-12T05:01:58.305Z,1.92
2023-01-12T05:06:05.652Z,5.45
2023-01-12T05:10:24.553Z,6.38
2023-01-12T05:14:31.306Z,6.82
2023-01-12T05:18:38.222Z,7.80
2023-01-12T05:22:44.982Z,5.15
2023-01-12T05:26:51.624Z,4.45
2023-01-12T05:31:12.781Z,4.78
2023-01-12T05:35:19.459Z,6.43
2023-01-12T05:39:26.115Z,2.70
2023-01-12T05:43:51.772Z,7.13
2023-01-12T05:48:00.374Z,4.70
2023-01-12T05:52:07.021Z,4.90
2023-01-12T05:56:22.125Z,4.60
2023-01-12T06:00:28.948Z,4.30
2023-01-12T06:04:35.654Z,3.20
2023-01-12T06:08:42.427Z,3.50
2023-01-12T06:13:10.724Z,3.63
2023-01-12T06:17:17.441Z,7.22
2023-01-12T06:21:25.259Z,1.65
2023-01-12T06:25:32.523Z,3.88
2023-01-12T06:29:39.180Z,5.40
2023-01-12T06:33:45.886Z,2.58
2023-01-12T06:37:57.133Z,3.40
2023-01-12T06:42:23.773Z,1.20
2023-01-12T06:46:30.640Z,2.65
2023-01-12T06:50:37.755Z,3.40
2023-01-12T06:54:44.475Z,2.47
2023-01-12T06:58:51.178Z,3.45
2023-01-12T07:02:58.400Z,3.80
2023-01-12T07:07:05.110Z,2.95
2023-01-12T07:11:16.685Z,3.45
2023-01-12T07:15:23.891Z,1.10
2023-01-12T07:19:31.011Z,1.35
2023-01-12T07:23:38.414Z,2.92
2023-01-12T07:27:53.002Z,0.80
2023-01-12T07:31:59.699Z,0.28
2023-01-12T07:36:06.690Z,0.15
2023-01-12T07:40:13.496Z,0.82
2023-01-12T07:44:20.198Z,1.40
2023-01-12T07:48:27.489Z,1.27
2023-01-12T07:52:34.868Z,1.40
2023-01-12T07:56:44.246Z,0.93
2023-01-12T08:00:51.116Z,0.68
2023-01-12T08:04:57.873Z,1.33
2023-01-12T08:09:04.639Z,0.57
2023-01-12T08:13:11.444Z,0.47
2023-01-12T08:17:21.536Z,1.80
2023-01-12T08:21:34.149Z,1.55
2023-01-12T08:25:44.828Z,3.00
2023-01-12T08:29:55.696Z,0.60
2023-01-12T08:34:02.889Z,0.98
2023-01-12T08:38:10.434Z,1.58
2023-01-12T08:42:18.010Z,2.05
2023-01-12T08:46:24.970Z,1.05
2023-01-12T08:50:31.696Z,0.38
2023-01-12T08:54:38.463Z,1.00
2023-01-12T08:58:45.416Z,4.03
2023-01-12T09:02:52.097Z,0.68
2023-01-12T09:07:00.176Z,0.75
2023-01-12T09:11:08.983Z,0.40
2023-01-12T09:15:15.769Z,1.27
2023-01-12T09:19:23.103Z,0.52
2023-01-12T09:23:29.835Z,0.80
2023-01-12T09:27:36.594Z,0.30
2023-01-12T09:31:44.779Z,0.55
2023-01-12T09:35:51.549Z,0.20
2023-01-12T09:39:59.881Z,0.03
2023-01-12T09:44:37.506Z,1.50
2023-01-12T09:48:44.786Z,1.15
2023-01-12T09:53:03.076Z,0.40
2023-01-12T09:57:29.127Z,0.05
2023-01-12T10:01:36.969Z,0.22
2023-01-12T10:05:53.100Z,0.82
2023-01-12T10:09:59.874Z,0.00
2023-01-12T10:14:15.317Z,0.10
2023-01-12T10:18:39.249Z,0.08
2023-01-12T10:22:50.836Z,1.75
2023-01-12T10:27:02.114Z,1.60
2023-01-12T10:31:15.713Z,1.65
2023-01-12T10:35:24.189Z,0.22
2023-01-12T10:39:43.337Z,0.10
2023-01-12T10:43:58.929Z,0.00
2023-01-12T10:48:17.177Z,0.00
2023-01-12T10:52:36.677Z,1.58
2023-01-12T10:56:54.792Z,0.10
2023-01-12T11:01:01.653Z,0.00
2023-01-12T11:05:30.506Z,0.30
2023-01-12T11:09:37.978Z,0.00
2023-01-12T11:13:44.731Z,0.00
2023-01-12T11:18:08.690Z,2.92
2023-01-12T11:22:27.641Z,0.10
2023-01-12T11:27:27.338Z,0.15
2023-01-12T11:31:42.276Z,0.00
2023-01-12T11:35:59.698Z,0.10
2023-01-12T11:40:29.698Z,0.17
2023-01-12T11:45:01.417Z,0.00
2023-01-12T11:49:27.115Z,0.00
2023-01-12T11:53:34.608Z,0.00
2023-01-12T11:58:22.757Z,0.00
2023-01-12T12:02:48.818Z,0.00
2023-01-12T12:07:16.744Z,0.35
2023-01-12T12:11:40.986Z,0.00
2023-01-12T12:15:59.882Z,0.00
2023-01-12T12:20:41.350Z,0.00
2023-01-12T12:25:10.458Z,0.10
2023-01-12T12:29:47.539Z,0.05
2023-01-12T12:34:18.609Z,0.03
2023-01-12T12:38:31.422Z,0.32
2023-01-12T12:43:14.994Z,0.10
2023-01-12T12:47:52.855Z,0.03
2023-01-12T12:52:00.621Z,0.10
2023-01-12T12:56:12.834Z,1.52
2023-01-12T13:00:42.511Z,0.13
2023-01-12T13:04:49.274Z,0.00
2023-01-12T13:08:58.677Z,0.20
2023-01-12T13:13:25.276Z,0.10
2023-01-12T13:17:31.930Z,0.00
2023-01-12T13:21:57.151Z,0.00
2023-01-12T13:26:04.267Z,0.00
2023-01-12T13:30:29.548Z,0.00
2023-01-12T13:34:39.314Z,0.08
2023-01-12T13:38:46.065Z,0.03
2023-01-12T13:43:16.215Z,0.00
2023-01-12T13:47:32.853Z,1.02
2023-01-12T13:51:54.441Z,0.40
2023-01-12T13:56:05.534Z,0.30
2023-01-12T14:00:22.080Z,0.10
2023-01-12T14:04:46.832Z,0.40
2023-01-12T14:09:51.865Z,0.20
2023-01-12T14:14:38.183Z,0.10
2023-01-12T14:18:47.609Z,0.45
2023-01-12T14:23:16.393Z,0.25
2023-01-12T14:27:26.049Z,0.13
2023-01-12T14:31:43.415Z,0.10
2023-01-12T14:35:55.305Z,0.30
2023-01-12T14:40:02.252Z,0.10
2023-01-12T14:44:37.762Z,0.20
2023-01-12T14:49:15.972Z,0.20
2023-01-12T14:53:32.487Z,0.77
2023-01-12T14:57:39.930Z,0.15
2023-01-12T15:01:46.747Z,0.20
2023-01-12T15:05:55.158Z,2.42
2023-01-12T15:10:10.661Z,0.30
2023-01-12T15:14:29.148Z,0.80
2023-01-12T15:18:55.055Z,0.30
2023-01-12T15:23:20.592Z,0.63
2023-01-12T15:27:28.026Z,0.35
2023-01-12T15:31:37.023Z,0.20
2023-01-12T15:35:48.592Z,0.95
2023-01-12T15:39:56.707Z,0.30
2023-01-12T15:44:03.417Z,0.20
2023-01-12T15:48:10.870Z,0.22
2023-01-12T15:52:22.557Z,0.20
2023-01-12T15:56:29.275Z,0.20
2023-01-12T16:00:36.374Z,0.47
2023-01-12T16:04:44.345Z,0.40
2023-01-12T16:08:51.112Z,0.38
2023-01-12T16:13:01.857Z,0.30
2023-01-12T16:17:08.691Z,0.30
2023-01-12T16:21:17.004Z,0.20
2023-01-12T16:25:23.661Z,0.10
2023-01-12T16:29:30.449Z,0.20
2023-01-12T16:33:37.541Z,0.20
2023-01-12T16:37:44.654Z,0.85
2023-01-12T16:41:53.218Z,0.20
2023-01-12T16:46:02.823Z,0.40
2023-01-12T16:50:09.949Z,0.20
2023-01-12T16:54:16.682Z,0.35
2023-01-12T16:58:23.323Z,0.20
2023-01-12T17:02:31.484Z,0.38
2023-01-12T17:06:42.551Z,0.10
2023-01-12T17:10:49.295Z,0.10
2023-01-12T17:14:56.517Z,0.20
2023-01-12T17:19:03.381Z,0.20
2023-01-12T17:23:10.513Z,1.20
2023-01-12T17:27:17.704Z,0.50
2023-01-12T17:31:24.492Z,0.15
2023-01-12T17:35:34.192Z,0.38
2023-01-12T17:39:42.878Z,0.10
2023-01-12T17:43:49.763Z,0.10
2023-01-12T17:47:56.457Z,0.13
2023-01-12T17:52:03.399Z,0.10
2023-01-12T17:56:11.034Z,0.10
2023-01-12T18:00:18.145Z,0.38
2023-01-12T18:04:24.800Z,0.30
2023-01-12T18:08:31.912Z,0.95
2023-01-12T18:12:39.173Z,0.30
2023-01-12T18:16:45.873Z,1.10
2023-01-12T18:20:53.684Z,0.20
2023-01-12T18:25:01.056Z,0.20
2023-01-12T18:29:07.850Z,0.10
2023-01-12T18:33:14.635Z,0.28
2023-01-12T18:37:21.303Z,0.00
2023-01-12T18:41:46.681Z,0.10
2023-01-12T18:45:53.744Z,1.02
2023-01-12T18:50:20.628Z,1.55
2023-01-12T18:54:27.294Z,2.63
2023-01-12T18:58:35.020Z,0.40
2023-01-12T19:02:42.051Z,0.60
2023-01-12T19:06:50.929Z,0.60
2023-01-12T19:11:08.061Z,1.10
2023-01-12T19:15:34.275Z,0.90
2023-01-12T19:19:40.927Z,0.82
2023-01-12T19:24:06.183Z,0.50
2023-01-12T19:28:35.106Z,1.83
2023-01-12T19:32:41.887Z,2.15
2023-01-12T19:36:48.581Z,1.85
2023-01-12T19:41:10.003Z,1.33
2023-01-12T19:45:17.041Z,3.28
2023-01-12T19:49:23.815Z,1.83
2023-01-12T19:53:30.814Z,2.05
2023-01-12T19:57:38.431Z,3.67
2023-01-12T20:01:45.196Z,0.75
2023-01-12T20:05:52.256Z,1.40
2023-01-12T20:10:01.811Z,2.15
2023-01-12T20:14:08.520Z,1.33
2023-01-12T20:18:15.351Z,1.55
2023-01-12T20:22:22.107Z,1.10
2023-01-12T20:26:28.808Z,2.40
2023-01-12T20:30:38.349Z,0.80
2023-01-12T20:34:45.591Z,2.13
2023-01-12T20:38:52.469Z,2.53
2023-01-12T20:42:59.165Z,1.65
2023-01-12T20:47:06.017Z,1.15
2023-01-12T20:51:14.696Z,0.80
2023-01-12T20:55:21.578Z,0.60
2023-01-12T20:59:28.281Z,1.95
2023-01-12T21:03:35.164Z,1.00
2023-01-12T21:07:41.928Z,1.60
2023-01-12T21:11:50.236Z,2.85
2023-01-12T21:15:58.699Z,2.92
2023-01-12T21:20:07.067Z,2.05
2023-01-12T21:24:13.758Z,0.60
2023-01-12T21:28:20.480Z,2.28
2023-01-12T21:32:28.648Z,2.78
2023-01-12T21:36:35.836Z,1.50
2023-01-12T21:40:42.540Z,0.73
2023-01-12T21:44:49.301Z,0.60
2023-01-12T21:48:55.986Z,3.03
2023-01-12T21:53:03.368Z,0.90
2023-01-12T21:57:10.118Z,1.67
2023-01-12T22:01:16.936Z,3.70
2023-01-12T22:05:24.401Z,5.57
2023-01-12T22:09:31.093Z,0.85
2023-01-12T22:13:38.633Z,0.55
2023-01-12T22:17:45.378Z,0.63
2023-01-12T22:21:52.031Z,4.25
2023-01-12T22:26:27.571Z,1.10
2023-01-12T22:30:34.267Z,8.43
2023-01-12T22:34:40.936Z,5.18
2023-01-12T22:38:47.668Z,8.57
2023-01-12T22:43:12.760Z,11.38
2023-01-12T22:47:19.429Z,5.05
2023-01-12T22:51:27.699Z,7.32
2023-01-12T22:55:34.435Z,12.20
2023-01-12T22:59:41.612Z,7.32
2023-01-12T23:03:52.006Z,8.05
2023-01-12T23:07:59.578Z,13.02
2023-01-12T23:12:06.403Z,11.30
2023-01-12T23:16:15.483Z,16.10
2023-01-12T23:20:22.197Z,16.67
2023-01-12T23:24:29.026Z,10.80
2023-01-12T23:28:41.075Z,17.35
2023-01-12T23:32:48.605Z,19.42
2023-01-12T23:36:55.434Z,8.38
2023-01-12T23:41:18.317Z,13.32
2023-01-12T23:45:25.263Z,12.15
2023-01-12T23:49:31.978Z,11.15
2023-01-12T23:53:38.849Z,19.23
2023-01-12T23:57:47.586Z,13.63
